Time;durP1;ratioP1;P1;durP2;ratioP2;P2;SDS_P1;SDS_P2;PMS_P1;PMS_P2;Temp;Humidity;BMP_temperature;BMP_pressure;BME280_temperature;BME280_humidity;BME280_pressure;Samples;Min_cycle;Max_cycle;Signal;HPM_P1;HPM_P2
2023/03/20 00:01:12;;;;;;;18.48;14.43;;;;;;;7.04;100.00;101466.16;5035617;28;20196;-47
2023/03/20 00:03:37;;;;;;;20.40;14.05;;;;;;;7.15;100.00;101459.81;5037306;28;20187;-47
2023/03/20 00:06:03;;;;;;;17.77;11.88;;;;;;;6.95;100.00;101470.75;5013442;28;20160;-43
2023/03/20 00:08:30;;;;;;;14.98;11.43;;;;;;;6.95;100.00;101467.16;5044184;28;20194;-43
2023/03/20 00:10:57;;;;;;;16.65;10.73;;;;;;;6.91;100.00;101471.69;5050564;28;20195;-44
2023/03/20 00:13:27;;;;;;;16.50;11.68;;;;;;;6.92;100.00;101481.41;5050684;28;20175;-45
2023/03/20 00:15:53;;;;;;;15.88;11.68;;;;;;;6.93;100.00;101482.28;5028015;28;20246;-44
2023/03/20 00:18:21;;;;;;;11.85;10.30;;;;;;;6.78;100.00;101473.59;5032764;28;20179;-42
2023/03/20 00:20:52;;;;;;;12.05;9.57;;;;;;;6.97;100.00;101481.34;5050998;28;20653;-45
2023/03/20 00:23:18;;;;;;;9.25;8.32;;;;;;;6.90;100.00;101469.03;5042051;28;20669;-43
2023/03/20 00:25:45;;;;;;;7.20;6.47;;;;;;;6.78;100.00;101473.59;5037193;28;20204;-42
2023/03/20 00:28:37;;;;;;;8.85;7.25;;;;;;;6.59;100.00;101472.06;5030395;28;20171;-46
2023/03/20 00:31:12;;;;;;;8.10;6.63;;;;;;;6.66;100.00;101472.88;5034317;28;20715;-45
2023/03/20 00:33:38;;;;;;;9.10;7.50;;;;;;;6.54;100.00;101463.25;5028389;28;20194;-42
2023/03/20 00:36:05;;;;;;;10.00;8.02;;;;;;;6.64;100.00;101467.56;5032369;28;20163;-43
2023/03/20 00:38:31;;;;;;;10.75;9.73;;;;;;;6.52;100.00;101457.94;5043500;28;20183;-45
2023/03/20 00:40:57;;;;;;;10.50;9.50;;;;;;;6.51;100.00;101474.78;5038053;28;20261;-42
2023/03/20 00:43:23;;;;;;;10.75;9.40;;;;;;;6.53;100.00;101474.78;5030083;28;20234;-45
2023/03/20 00:45:48;;;;;;;9.80;8.90;;;;;;;6.46;100.00;101468.66;5034695;28;20681;-43
2023/03/20 00:48:15;;;;;;;9.15;8.13;;;;;;;6.41;100.00;101478.47;5050000;28;20187;-44
2023/03/20 00:50:41;;;;;;;8.70;7.80;;;;;;;6.41;100.00;101478.47;5038866;28;20565;-43
2023/03/20 00:53:11;;;;;;;9.00;8.20;;;;;;;6.37;100.00;101477.63;5049003;28;20172;-45
2023/03/20 00:55:38;;;;;;;7.97;7.03;;;;;;;6.27;100.00;101480.38;5031896;28;20646;-43
2023/03/20 00:58:05;;;;;;;7.00;6.18;;;;;;;6.14;100.00;101469.88;5038161;28;20215;-43
2023/03/20 01:00:44;;;;;;;7.78;6.70;;;;;;;6.14;100.00;101472.53;5021858;28;20617;-42
2023/03/20 01:03:16;;;;;;;7.70;6.90;;;;;;;6.20;100.00;101476.91;5045576;28;20183;-47
2023/03/20 01:05:42;;;;;;;7.82;7.03;;;;;;;6.19;100.00;101481.34;5012718;28;20678;-42
2023/03/20 01:08:20;;;;;;;7.35;6.38;;;;;;;6.10;100.00;101476.13;5049225;28;20178;-42
2023/03/20 01:10:51;;;;;;;7.85;6.88;;;;;;;6.11;100.00;101480.53;5048792;28;20167;-44
2023/03/20 01:13:29;;;;;;;7.40;6.65;;;;;;;6.12;100.00;101482.31;5049947;28;20190;-46
2023/03/20 01:15:56;;;;;;;8.95;7.93;;;;;;;6.00;100.00;101470.91;5038509;28;20202;-44
2023/03/20 01:18:24;;;;;;;8.38;7.47;;;;;;;6.13;100.00;101481.41;5030256;28;20164;-42
2023/03/20 01:20:54;;;;;;;9.82;8.23;;;;;;;6.05;100.00;101488.56;5029793;28;20188;-43
2023/03/20 01:23:21;;;;;;;10.25;9.02;;;;;;;6.02;100.00;101482.41;5029009;28;20172;-43
2023/03/20 01:25:48;;;;;;;10.77;8.90;;;;;;;6.02;100.00;101482.41;5030305;28;20245;-47
2023/03/20 01:28:20;;;;;;;14.07;10.45;;;;;;;5.98;100.00;101481.53;5033503;28;20164;-43
2023/03/20 01:30:47;;;;;;;11.75;9.90;;;;;;;5.89;100.00;101485.13;5016236;28;20258;-43
2023/03/20 01:33:21;;;;;;;12.30;10.73;;;;;;;5.84;100.00;101475.41;5016233;28;20180;-44
2023/03/20 01:35:52;;;;;;;12.98;10.85;;;;;;;5.91;100.00;101488.66;5034190;28;20175;-46
2023/03/20 01:38:20;;;;;;;12.98;11.13;;;;;;;5.90;100.00;101489.56;5019429;28;20171;-48
2023/03/20 01:40:49;;;;;;;12.30;10.73;;;;;;;5.90;100.00;101486.91;5044641;28;20207;-42
2023/03/20 01:43:18;;;;;;;12.65;10.98;;;;;;;5.81;100.00;101491.41;5030392;28;20200;-42
2023/03/20 01:46:16;;;;;;;12.90;11.05;;;;;;;5.74;100.00;101493.22;5048887;28;20218;-41
2023/03/20 01:48:51;;;;;;;13.27;10.45;;;;;;;5.68;100.00;101494.13;5049086;28;20184;-47
2023/03/20 01:51:31;;;;;;;13.68;11.13;;;;;;;5.72;100.00;101501.19;5040641;28;20691;-46
2023/03/20 01:54:25;;;;;;;14.85;11.45;;;;;;;5.72;100.00;101501.19;5041192;28;20650;-42
2023/03/20 01:57:09;;;;;;;15.73;11.55;;;;;;;5.63;100.00;101487.97;5049147;28;20207;-44
2023/03/20 01:59:41;;;;;;;16.98;13.52;;;;;;;5.71;100.00;101495.91;5048705;28;20180;-44
2023/03/20 02:02:13;;;;;;;16.15;13.65;;;;;;;5.52;100.00;101487.19;5051230;28;20215;-42
2023/03/20 02:04:43;;;;;;;13.02;11.63;;;;;;;5.56;100.00;101480.97;5051775;28;20199;-43
2023/03/20 02:07:16;;;;;;;12.23;10.10;;;;;;;5.45;100.00;101477.50;5051905;28;20585;-44
2023/03/20 02:09:54;;;;;;;9.23;8.23;;;;;;;5.39;100.00;101469.56;5051884;28;20167;-43
2023/03/20 02:12:32;;;;;;;10.15;7.45;;;;;;;5.37;100.00;101490.81;5050041;28;20178;-42
2023/03/20 02:14:58;;;;;;;6.50;5.90;;;;;;;5.41;100.00;101486.38;5035077;28;20207;-43
2023/03/20 02:17:47;;;;;;;5.03;4.55;;;;;;;5.41;100.00;101468.66;5033162;28;20459;-42
2023/03/20 02:20:32;;;;;;;3.90;3.45;;;;;;;5.34;100.00;101474.91;5048346;28;20210;-43
2023/03/20 02:23:36;;;;;;;3.58;2.78;;;;;;;5.50;100.00;101468.59;5047040;28;20550;-43
2023/03/20 02:26:14;;;;;;;2.55;2.10;;;;;;;5.40;100.00;101469.56;5031545;28;20660;-42
2023/03/20 02:29:27;;;;;;;2.15;2.05;;;;;;;5.40;100.00;101474.88;5041454;28;20180;-42
2023/03/20 02:32:17;;;;;;;1.77;1.60;;;;;;;5.48;100.00;101466.84;5042728;28;20203;-42
2023/03/20 02:34:55;;;;;;;1.38;1.27;;;;;;;5.60;100.00;101465.84;5036984;28;20247;-41
2023/03/20 02:37:22;;;;;;;1.52;1.42;;;;;;;5.55;100.00;101465.88;5031392;28;20210;-45
2023/03/20 02:40:21;;;;;;;1.80;1.70;;;;;;;5.45;100.00;101453.56;5031863;28;20183;-45
2023/03/20 02:42:50;;;;;;;1.73;1.63;;;;;;;5.41;100.00;101458.03;5051025;28;20195;-44
2023/03/20 02:45:18;;;;;;;1.80;1.48;;;;;;;5.56;100.00;101465.00;5047635;28;20241;-42
2023/03/20 02:47:53;;;;;;;1.70;1.60;;;;;;;5.44;100.00;101471.28;5067010;28;20555;-41
2023/03/20 02:51:01;;;;;;;2.00;1.90;;;;;;;5.52;100.00;101469.44;5031122;28;20196;-41
2023/03/20 02:53:37;;;;;;;2.40;2.20;;;;;;;5.41;100.00;101462.47;5031067;28;20180;-43
2023/03/20 02:56:02;;;;;;;3.17;2.22;;;;;;;5.62;100.00;101464.06;5039667;28;20187;-43
2023/03/20 02:58:54;;;;;;;3.75;2.88;;;;;;;5.65;100.00;101464.06;5051087;28;20627;-43
2023/03/20 03:01:26;;;;;;;3.65;3.30;;;;;;;5.55;100.00;101464.13;5037344;28;20207;-43
2023/03/20 03:03:57;;;;;;;3.80;3.50;;;;;;;5.60;100.00;101457.88;5034027;28;20191;-43
2023/03/20 03:06:26;;;;;;;4.50;4.10;;;;;;;5.55;100.00;101456.16;5051056;28;20183;-44
2023/03/20 03:09:02;;;;;;;4.78;4.25;;;;;;;5.52;100.00;101452.63;5043743;28;20226;-43
2023/03/20 03:11:31;;;;;;;4.93;4.47;;;;;;;5.55;100.00;101448.19;5042770;28;20175;-42
2023/03/20 03:13:57;;;;;;;6.07;5.45;;;;;;;5.54;100.00;101438.44;5047264;28;20283;-42
2023/03/20 03:16:28;;;;;;;6.95;6.25;;;;;;;5.53;100.00;101449.06;5030611;28;20172;-43
2023/03/20 03:19:12;;;;;;;7.80;6.68;;;;;;;5.55;100.00;101436.66;5043655;28;20187;-45
2023/03/20 03:21:39;;;;;;;8.30;7.13;;;;;;;5.66;100.00;101432.13;5047389;28;20219;-42
2023/03/20 03:24:06;;;;;;;9.93;8.60;;;;;;;5.54;100.00;101429.59;5033988;28;20223;-44
2023/03/20 03:26:36;;;;;;;10.68;9.18;;;;;;;5.64;100.00;101430.38;5037740;28;20222;-43
2023/03/20 03:29:11;;;;;;;12.05;9.80;;;;;;;5.65;100.00;101434.81;5038731;28;20653;-43
2023/03/20 03:31:37;;;;;;;12.35;10.80;;;;;;;5.63;100.00;101424.19;5043482;28;20629;-43
2023/03/20 03:34:03;;;;;;;11.57;10.48;;;;;;;5.71;100.00;101416.16;5031228;28;20192;-45
2023/03/20 03:36:36;;;;;;;12.23;11.00;;;;;;;5.71;100.00;101422.34;5035762;28;20176;-46
2023/03/20 03:39:35;;;;;;;12.40;11.20;;;;;;;5.67;100.00;101420.59;5049017;28;20534;-42
2023/03/20 03:42:01;;;;;;;11.27;10.18;;;;;;;5.71;100.00;101424.13;5033430;28;20239;-43
2023/03/20 03:44:46;;;;;;;9.13;8.23;;;;;;;5.76;100.00;101431.16;5047034;28;20212;-47
2023/03/20 03:47:19;;;;;;;9.30;8.27;;;;;;;5.57;100.00;101416.25;5037867;28;20187;-42
2023/03/20 03:49:51;;;;;;;10.32;8.93;;;;;;;5.70;100.00;101404.63;5049981;28;20229;-46
2023/03/20 03:52:23;;;;;;;7.80;7.10;;;;;;;5.58;100.00;101405.63;5042747;28;20188;-42
2023/03/20 03:54:55;;;;;;;8.15;7.10;;;;;;;5.63;100.00;101415.34;5029930;28;20192;-42
2023/03/20 03:58:01;;;;;;;6.82;6.05;;;;;;;5.62;100.00;101408.25;5025530;28;20184;-41
2023/03/20 04:00:27;;;;;;;7.65;5.53;;;;;;;5.62;100.00;101426.84;5050374;28;20208;-42
2023/03/20 04:02:56;;;;;;;6.07;4.65;;;;;;;5.51;100.00;101414.53;5031668;28;20263;-43
2023/03/20 04:05:26;;;;;;;6.20;5.60;;;;;;;5.60;100.00;101418.00;5053984;28;20226;-43
2023/03/20 04:07:54;;;;;;;5.53;5.03;;;;;;;5.61;100.00;101427.75;5049182;28;20175;-45
2023/03/20 04:10:20;;;;;;;5.25;4.85;;;;;;;5.50;100.00;101410.09;5035033;28;20198;-47
2023/03/20 04:12:45;;;;;;;5.93;5.10;;;;;;;5.58;100.00;101410.94;5029504;28;20180;-43
2023/03/20 04:15:13;;;;;;;5.25;4.85;;;;;;;5.60;100.00;101425.97;5029566;28;20192;-43
2023/03/20 04:17:39;;;;;;;5.60;4.40;;;;;;;5.52;100.00;101415.41;5037615;28;20187;-44
2023/03/20 04:20:07;;;;;;;6.28;4.88;;;;;;;5.48;100.00;101403.91;5038163;28;20191;-41
2023/03/20 04:22:33;;;;;;;5.00;4.60;;;;;;;5.47;100.00;101403.97;5048363;28;20560;-44
2023/03/20 04:25:05;;;;;;;5.22;4.50;;;;;;;5.55;100.00;101408.31;5049060;28;20194;-43
2023/03/20 04:27:31;;;;;;;5.65;5.15;;;;;;;5.53;100.00;101407.44;5041443;28;20188;-44
2023/03/20 04:29:57;;;;;;;5.95;5.43;;;;;;;5.53;100.00;101406.53;5034345;28;20176;-44
2023/03/20 04:32:48;;;;;;;6.13;5.55;;;;;;;5.49;100.00;101407.50;5030064;28;20232;-43
2023/03/20 04:35:23;;;;;;;7.53;6.88;;;;;;;5.42;100.00;101406.63;5029268;28;20195;-44
2023/03/20 04:37:53;;;;;;;7.95;7.07;;;;;;;5.58;100.00;101410.94;5028966;28;20234;-46
2023/03/20 04:40:18;;;;;;;8.73;7.95;;;;;;;5.52;100.00;101410.97;5037722;28;20200;-43
2023/03/20 04:42:45;;;;;;;9.85;8.63;;;;;;;5.61;100.00;101414.47;5029057;28;20276;-45
2023/03/20 04:45:10;;;;;;;10.10;8.38;;;;;;;5.48;100.00;101416.34;5035744;28;20640;-41
2023/03/20 04:47:37;;;;;;;10.55;9.55;;;;;;;5.53;100.00;101415.41;5045900;28;20219;-45
2023/03/20 04:50:05;;;;;;;10.25;9.18;;;;;;;5.52;100.00;101400.34;5032253;28;20186;-43
2023/03/20 04:52:30;;;;;;;10.57;9.48;;;;;;;5.54;100.00;101403.00;5048998;28;20259;-41
2023/03/20 04:54:56;;;;;;;11.30;9.40;;;;;;;5.49;100.00;101404.84;5050484;28;20294;-42
2023/03/20 04:57:23;;;;;;;10.90;9.45;;;;;;;5.39;100.00;101398.69;5049102;28;20167;-43
2023/03/20 04:59:49;;;;;;;13.68;9.48;;;;;;;5.47;100.00;101403.97;5049106;28;20485;-44
2023/03/20 05:02:16;;;;;;;11.20;9.07;;;;;;;5.42;100.00;101396.00;5047956;28;20199;-46
2023/03/20 05:04:42;;;;;;;12.38;10.05;;;;;;;5.41;100.00;101404.88;5048692;28;20191;-45
2023/03/20 05:07:08;;;;;;;14.25;11.15;;;;;;;5.36;100.00;101407.56;5045542;28;20318;-44
2023/03/20 05:09:47;;;;;;;13.50;10.70;;;;;;;5.44;100.00;101411.94;5029057;28;20218;-41
2023/03/20 05:12:13;;;;;;;14.15;11.07;;;;;;;5.52;100.00;101426.06;5034924;28;20183;-42
2023/03/20 05:14:59;;;;;;;13.40;10.43;;;;;;;5.45;100.00;101424.34;5024508;28;20249;-42
2023/03/20 05:17:43;;;;;;;15.25;10.38;;;;;;;5.46;100.00;101410.16;5034501;28;20556;-44
2023/03/20 05:20:23;;;;;;;12.10;10.80;;;;;;;5.59;100.00;101419.78;5034299;28;20238;-45
2023/03/20 05:23:07;;;;;;;14.85;11.13;;;;;;;5.40;100.00;101412.84;5030184;28;20195;-43
2023/03/20 05:25:49;;;;;;;15.38;12.48;;;;;;;5.44;100.00;101420.78;5028720;28;20196;-44
2023/03/20 05:28:40;;;;;;;15.70;13.38;;;;;;;5.47;100.00;101433.19;5020493;28;20674;-42
2023/03/20 05:31:32;;;;;;;13.52;12.18;;;;;;;5.62;100.00;101430.41;5020597;28;20180;-41
2023/03/20 05:34:12;;;;;;;16.52;13.70;;;;;;;5.55;100.00;101420.69;5047227;28;20199;-42
2023/03/20 05:36:56;;;;;;;14.77;12.80;;;;;;;5.58;100.00;101440.19;5049301;28;20988;-43
2023/03/20 05:39:48;;;;;;;15.35;13.45;;;;;;;5.59;100.00;101433.06;5034715;28;20195;-44
2023/03/20 05:42:32;;;;;;;17.73;14.57;;;;;;;5.63;100.00;101437.47;5045580;28;20672;-45
2023/03/20 05:45:15;;;;;;;16.58;13.00;;;;;;;5.58;100.00;101431.31;5021322;28;20267;-43
2023/03/20 05:47:52;;;;;;;15.50;12.38;;;;;;;5.57;100.00;101435.78;5016335;28;20547;-45
2023/03/20 05:50:18;;;;;;;13.73;11.63;;;;;;;5.56;100.00;101439.31;5049295;28;20195;-45
2023/03/20 05:53:09;;;;;;;14.75;11.73;;;;;;;5.61;100.00;101433.06;5033988;28;20195;-43
2023/03/20 05:55:49;;;;;;;14.82;13.13;;;;;;;5.57;100.00;101441.09;5011836;28;20208;-46
2023/03/20 05:58:46;;;;;;;16.05;13.25;;;;;;;5.60;100.00;101444.59;5038732;28;20187;-48
2023/03/20 06:01:50;;;;;;;19.27;14.45;;;;;;;5.62;100.00;101443.69;5027488;28;20729;-47
2023/03/20 06:04:25;;;;;;;18.50;16.15;;;;;;;5.59;100.00;101443.72;5027764;28;20872;-45
2023/03/20 06:07:20;;;;;;;19.75;16.92;;;;;;;5.55;100.00;101441.97;5035435;28;20195;-47
2023/03/20 06:09:55;;;;;;;20.88;16.95;;;;;;;5.63;100.00;101436.59;5036274;28;20201;-45
2023/03/20 06:12:21;;;;;;;20.95;15.90;;;;;;;5.67;100.00;101436.56;5027571;28;20183;-46
2023/03/20 06:14:46;;;;;;;21.42;16.25;;;;;;;5.69;100.00;101437.44;5031374;28;20319;-46
2023/03/20 06:17:12;;;;;;;22.27;17.30;;;;;;;5.71;100.00;101437.44;5031245;28;20202;-48
2023/03/20 06:19:39;;;;;;;21.67;17.48;;;;;;;5.70;100.00;101454.25;5016466;28;20266;-47
2023/03/20 06:22:04;;;;;;;19.80;17.52;;;;;;;5.72;100.00;101450.69;5031356;28;20734;-48
2023/03/20 06:24:31;;;;;;;25.05;17.83;;;;;;;5.73;100.00;101446.28;5043679;28;20191;-45
2023/03/20 06:26:57;;;;;;;26.38;18.70;;;;;;;5.70;100.00;101446.28;5030743;28;20359;-47
2023/03/20 06:29:24;;;;;;;25.77;18.38;;;;;;;5.75;100.00;101448.03;5029991;28;20222;-47
2023/03/20 06:31:52;;;;;;;23.25;18.35;;;;;;;5.80;100.00;101455.09;5027864;28;20305;-46
2023/03/20 06:34:25;;;;;;;23.27;16.13;;;;;;;5.84;100.00;101468.34;5006724;28;20313;-46
2023/03/20 06:36:50;;;;;;;19.27;14.45;;;;;;;5.86;100.00;101458.56;5024798;28;20183;-47
2023/03/20 06:39:20;;;;;;;18.75;13.20;;;;;;;5.85;100.00;101464.75;5020739;28;20226;-45
2023/03/20 06:41:46;;;;;;;19.00;12.80;;;;;;;5.86;100.00;101463.88;5035146;28;20251;-46
2023/03/20 06:44:12;;;;;;;16.27;10.57;;;;;;;5.88;100.00;101455.88;5037634;28;20207;-46
2023/03/20 06:47:00;;;;;;;18.10;10.18;;;;;;;5.81;100.00;101462.16;5045613;28;20298;-47
2023/03/20 06:49:26;;;;;;;18.40;9.75;;;;;;;5.74;100.00;101462.19;5026449;28;20703;-48
2023/03/20 06:51:52;;;;;;;12.77;9.57;;;;;;;5.75;100.00;101453.34;5031925;28;20529;-46
2023/03/20 06:54:23;;;;;;;16.45;9.60;;;;;;;5.83;100.00;101461.22;5037321;28;20273;-46
2023/03/20 06:56:49;;;;;;;14.18;10.02;;;;;;;5.80;100.00;101458.63;5024023;28;20180;-48
2023/03/20 06:59:15;;;;;;;17.80;9.60;;;;;;;5.81;100.00;101455.03;5026428;28;20254;-45
2023/03/20 07:01:41;;;;;;;21.92;11.13;;;;;;;5.76;100.00;101449.78;5024039;28;20227;-46
2023/03/20 07:04:06;;;;;;;13.13;9.88;;;;;;;5.86;100.00;101462.97;5023471;28;20699;-48
2023/03/20 07:06:39;;;;;;;14.68;10.30;;;;;;;5.81;100.00;101449.72;5031007;28;20279;-46
2023/03/20 07:09:06;;;;;;;16.42;8.63;;;;;;;5.78;100.00;101449.78;5044719;28;20279;-46
2023/03/20 07:11:33;;;;;;;17.42;9.25;;;;;;;5.88;100.00;101455.88;5025545;28;20183;-45
2023/03/20 07:14:00;;;;;;;13.60;8.65;;;;;;;5.83;100.00;101458.56;5023407;28;20244;-44
2023/03/20 07:16:58;;;;;;;11.23;8.15;;;;;;;5.84;100.00;101464.78;5034645;28;20685;-47
2023/03/20 07:19:24;;;;;;;15.23;8.98;;;;;;;5.86;100.00;101466.56;5025761;28;20238;-45
2023/03/20 07:22:03;;;;;;;16.83;9.00;;;;;;;5.87;100.00;101456.78;5026345;28;20770;-46
2023/03/20 07:24:34;;;;;;;11.73;7.88;;;;;;;5.91;100.00;101462.06;5020508;28;20222;-49
2023/03/20 07:27:00;;;;;;;12.50;7.68;;;;;;;5.98;100.00;101478.88;5022935;28;20642;-45
2023/03/20 07:29:25;;;;;;;14.45;7.75;;;;;;;5.92;100.00;101484.22;5041273;28;20637;-45
2023/03/20 07:31:51;;;;;;;12.48;7.97;;;;;;;5.89;100.00;101482.47;5025583;28;20645;-46
2023/03/20 07:34:23;;;;;;;13.95;7.38;;;;;;;5.93;100.00;101478.00;5025868;28;20713;-46
2023/03/20 07:36:50;;;;;;;12.02;7.18;;;;;;;6.10;100.00;101472.56;5020480;28;20183;-47
2023/03/20 07:39:20;;;;;;;10.13;6.80;;;;;;;6.06;100.00;101481.47;5031821;28;20680;-46
2023/03/20 07:41:56;;;;;;;12.75;7.38;;;;;;;6.11;100.00;101487.63;5023415;28;20570;-47
2023/03/20 07:44:35;;;;;;;9.93;6.40;;;;;;;6.10;100.00;101488.50;5038696;28;20724;-48
2023/03/20 07:47:07;;;;;;;14.43;6.93;;;;;;;6.12;100.00;101484.06;5032669;28;20190;-46
2023/03/20 07:49:33;;;;;;;12.23;6.97;;;;;;;6.11;100.00;101479.66;5046916;28;20187;-46
2023/03/20 07:51:59;;;;;;;9.35;6.68;;;;;;;6.18;100.00;101476.03;5032025;28;20184;-44
2023/03/20 07:54:25;;;;;;;15.07;6.80;;;;;;;6.13;100.00;101470.75;5047208;28;20226;-42
2023/03/20 07:56:51;;;;;;;16.35;7.10;;;;;;;6.25;100.00;101472.41;5031798;28;20187;-42
2023/03/20 07:59:17;;;;;;;8.13;5.95;;;;;;;6.25;100.00;101477.72;5031893;28;20195;-47
2023/03/20 08:01:42;;;;;;;10.27;6.40;;;;;;;6.24;100.00;101464.47;5032125;28;20200;-44
2023/03/20 08:04:08;;;;;;;12.18;6.25;;;;;;;6.15;100.00;101476.06;5042096;28;20300;-44
2023/03/20 08:06:34;;;;;;;10.35;6.85;;;;;;;6.23;100.00;101475.97;5047160;28;20212;-44
2023/03/20 08:09:00;;;;;;;10.82;6.70;;;;;;;6.21;100.00;101461.81;5046699;28;20187;-43
2023/03/20 08:11:26;;;;;;;14.55;7.03;;;;;;;6.33;100.00;101465.22;5032555;28;20588;-43
2023/03/20 08:13:51;;;;;;;12.48;6.50;;;;;;;6.34;100.00;101463.44;5036187;28;20207;-41
2023/03/20 08:16:17;;;;;;;13.15;6.75;;;;;;;6.42;100.00;101468.69;5048764;28;20163;-42
2023/03/20 08:18:42;;;;;;;9.98;6.43;;;;;;;6.46;100.00;101473.09;5031760;28;20168;-44
2023/03/20 08:21:08;;;;;;;9.70;6.07;;;;;;;6.62;100.00;101465.81;5031497;28;20211;-43
2023/03/20 08:23:34;;;;;;;11.98;6.60;;;;;;;6.47;100.00;101473.09;5047386;28;20401;-41
2023/03/20 08:25:59;;;;;;;10.45;6.32;;;;;;;6.60;100.00;101466.72;5038937;28;20522;-41
2023/03/20 08:28:25;;;;;;;16.05;6.70;;;;;;;6.47;100.00;101450.88;5038961;28;20174;-42
2023/03/20 08:30:50;;;;;;;16.00;6.60;;;;;;;6.58;100.00;101459.63;5044125;28;20642;-45
2023/03/20 08:33:17;;;;;;;12.32;6.20;;;;;;;6.66;100.00;101447.13;5035483;28;20183;-42
2023/03/20 08:35:43;;;;;;;10.18;6.30;;;;;;;6.67;100.00;101461.31;5036903;28;20211;-45
2023/03/20 08:38:12;;;;;;;13.13;6.40;;;;;;;6.68;100.00;101449.75;5039601;28;20188;-45
2023/03/20 08:40:41;;;;;;;12.77;6.10;;;;;;;6.67;100.00;101450.66;5038332;28;20203;-42
2023/03/20 08:43:07;;;;;;;12.23;6.32;;;;;;;6.73;100.00;101451.44;5040827;28;20259;-44
2023/03/20 08:45:33;;;;;;;13.73;6.70;;;;;;;6.75;100.00;101452.31;5040290;28;20663;-42
2023/03/20 08:47:58;;;;;;;14.10;6.32;;;;;;;6.76;100.00;101463.88;5038569;28;20180;-43
2023/03/20 08:50:24;;;;;;;14.05;6.30;;;;;;;6.86;100.00;101454.84;5040463;28;20174;-43
2023/03/20 08:52:49;;;;;;;13.38;6.82;;;;;;;6.79;100.00;101456.72;5039033;28;20258;-47
2023/03/20 08:55:15;;;;;;;12.82;6.45;;;;;;;6.86;100.00;101451.31;5036028;28;20215;-42
2023/03/20 08:57:41;;;;;;;10.27;6.03;;;;;;;6.84;100.00;101456.66;5040565;28;20175;-42
2023/03/20 09:00:11;;;;;;;11.15;6.95;;;;;;;6.80;100.00;101455.81;5038106;28;20195;-43
2023/03/20 09:02:37;;;;;;;10.00;6.32;;;;;;;6.87;100.00;101451.31;5036647;28;20176;-44
2023/03/20 09:05:02;;;;;;;11.32;6.93;;;;;;;6.89;100.00;101465.47;5028260;28;20205;-46
2023/03/20 09:07:28;;;;;;;14.25;7.50;;;;;;;6.80;100.00;101465.59;5036502;28;20252;-43
2023/03/20 09:09:54;;;;;;;12.10;7.90;;;;;;;6.72;100.00;101464.81;5032542;28;20176;-44
2023/03/20 09:12:19;;;;;;;10.73;7.28;;;;;;;6.71;100.00;101463.03;5043399;28;20202;-44
2023/03/20 09:14:44;;;;;;;17.85;7.88;;;;;;;6.79;100.00;101469.16;5037736;28;20200;-44
2023/03/20 09:17:10;;;;;;;15.90;7.60;;;;;;;6.84;100.00;101466.44;5034752;28;20278;-44
2023/03/20 09:19:38;;;;;;;15.63;8.20;;;;;;;6.90;100.00;101464.56;5040089;28;20264;-43
2023/03/20 09:22:05;;;;;;;16.52;8.32;;;;;;;7.03;100.00;101470.63;5041924;28;20202;-42
2023/03/20 09:24:31;;;;;;;15.70;9.20;;;;;;;7.03;100.00;101472.41;5041597;28;20287;-47
2023/03/20 09:27:00;;;;;;;17.10;8.60;;;;;;;7.00;100.00;101478.66;5033371;28;20620;-47
2023/03/20 09:29:26;;;;;;;14.00;8.45;;;;;;;6.98;100.00;101480.47;5030017;28;20175;-46
2023/03/20 09:31:53;;;;;;;15.63;8.57;;;;;;;6.80;100.00;101484.25;5038067;28;20186;-44
2023/03/20 09:34:18;;;;;;;16.02;8.45;;;;;;;6.89;100.00;101475.25;5040258;28;20455;-44
2023/03/20 09:36:44;;;;;;;17.02;9.10;;;;;;;6.85;100.00;101490.38;5039330;28;20271;-47
2023/03/20 09:39:10;;;;;;;17.58;9.27;;;;;;;6.92;100.00;101478.75;5034693;28;20222;-45
2023/03/20 09:41:36;;;;;;;17.42;9.50;;;;;;;6.89;100.00;101492.13;5033396;28;20207;-47
2023/03/20 09:44:30;;;;;;;12.38;9.05;;;;;;;6.85;100.00;101479.72;5035954;28;20210;-45
2023/03/20 09:47:11;;;;;;;13.45;10.18;;;;;;;6.96;100.00;101479.59;5037847;28;20188;-45
2023/03/20 09:49:42;;;;;;;13.93;9.50;;;;;;;7.03;100.00;101485.72;5049112;28;20175;-45
2023/03/20 09:52:22;;;;;;;15.57;9.75;;;;;;;7.13;100.00;101484.72;5039781;28;20274;-47
2023/03/20 09:54:53;;;;;;;16.10;9.85;;;;;;;7.16;100.00;101488.19;5044920;28;20191;-46
2023/03/20 09:57:22;;;;;;;15.25;10.32;;;;;;;7.08;100.00;101484.75;5038247;28;20180;-46
2023/03/20 09:59:50;;;;;;;15.57;10.23;;;;;;;7.17;100.00;101478.41;5042288;28;20244;-45
2023/03/20 10:02:31;;;;;;;15.05;9.73;;;;;;;7.23;100.00;101489.88;5040236;28;20203;-45
2023/03/20 10:04:57;;;;;;;11.23;9.82;;;;;;;7.18;100.00;101485.53;5044556;28;20210;-45
2023/03/20 10:07:24;;;;;;;12.00;10.25;;;;;;;7.26;100.00;101480.06;5043595;28;20663;-44
2023/03/20 10:09:50;;;;;;;11.82;10.63;;;;;;;7.19;100.00;101488.19;5035997;28;20226;-44
2023/03/20 10:12:21;;;;;;;14.07;9.25;;;;;;;7.14;100.00;101481.13;5039139;28;20188;-43
2023/03/20 10:14:57;;;;;;;15.77;10.80;;;;;;;7.17;100.00;101475.75;5040127;28;20199;-46
2023/03/20 10:18:00;;;;;;;13.40;10.48;;;;;;;7.19;100.00;101479.28;5047274;28;20183;-44
2023/03/20 10:20:34;;;;;;;12.68;10.73;;;;;;;7.18;100.00;101482.88;5044058;28;20202;-45
2023/03/20 10:23:06;;;;;;;16.42;11.48;;;;;;;7.11;100.00;101471.41;5042028;28;20561;-44
2023/03/20 10:25:39;;;;;;;19.13;11.95;;;;;;;7.20;100.00;101470.41;5047267;28;20203;-46
2023/03/20 10:28:12;;;;;;;15.90;12.82;;;;;;;7.19;100.00;101465.97;5039162;28;20187;-44
2023/03/20 10:30:50;;;;;;;16.15;13.10;;;;;;;7.19;100.00;101472.19;5032641;28;20265;-44
2023/03/20 10:33:30;;;;;;;18.00;14.35;;;;;;;7.28;100.00;101476.50;5040812;28;20191;-46
2023/03/20 10:36:02;;;;;;;18.63;14.60;;;;;;;7.19;100.00;101463.28;5040726;28;20190;-44
2023/03/20 10:38:39;;;;;;;16.60;14.95;;;;;;;7.30;100.00;101472.00;5042019;28;20680;-44
2023/03/20 10:41:14;;;;;;;19.95;16.35;;;;;;;7.35;100.00;101478.19;5038337;28;20206;-44
2023/03/20 10:43:42;;;;;;;17.58;14.93;;;;;;;7.22;100.00;101473.94;5043431;28;20214;-45
2023/03/20 10:46:34;;;;;;;24.38;15.10;;;;;;;7.21;100.00;101470.38;5039608;28;20188;-45
2023/03/20 10:49:01;;;;;;;20.65;17.00;;;;;;;7.30;100.00;101471.13;5044536;28;20219;-45
2023/03/20 10:51:52;;;;;;;23.30;17.13;;;;;;;7.36;100.00;101469.25;5044705;28;20183;-43
2023/03/20 10:54:17;;;;;;;20.15;16.90;;;;;;;7.36;100.00;101465.72;5039978;28;20208;-44
2023/03/20 10:56:47;;;;;;;19.67;17.55;;;;;;;7.51;100.00;101470.81;5047253;28;20246;-45
2023/03/20 10:59:31;;;;;;;22.23;17.88;;;;;;;7.59;100.00;101471.59;5033112;28;20190;-44
2023/03/20 11:01:56;;;;;;;26.33;18.42;;;;;;;7.52;100.00;101471.69;5038512;28;20231;-44
2023/03/20 11:04:22;;;;;;;18.95;17.08;;;;;;;7.49;100.00;101467.31;5036687;28;20292;-46
2023/03/20 11:07:08;;;;;;;26.67;18.02;;;;;;;7.38;100.00;101469.25;5041930;28;20190;-42
2023/03/20 11:09:34;;;;;;;24.98;19.38;;;;;;;7.38;100.00;101464.78;5041312;28;20222;-46
2023/03/20 11:12:01;;;;;;;21.73;19.42;;;;;;;7.18;100.00;101466.88;5039394;28;20273;-45
2023/03/20 11:14:34;;;;;;;24.58;20.20;;;;;;;7.25;100.00;101473.88;5037897;28;20338;-44
2023/03/20 11:17:02;;;;;;;24.65;19.83;;;;;;;7.32;100.00;101459.53;5031255;28;20213;-43
2023/03/20 11:19:33;;;;;;;22.58;19.98;;;;;;;7.42;100.00;101465.63;5039801;28;20596;-44
2023/03/20 11:22:06;;;;;;;24.63;21.33;;;;;;;7.28;100.00;101460.53;5039768;28;20300;-45
2023/03/20 11:24:43;;;;;;;25.17;20.73;;;;;;;7.26;100.00;101461.41;5033589;28;20211;-43
2023/03/20 11:27:13;;;;;;;26.83;21.77;;;;;;;7.25;100.00;101454.34;5036463;28;20192;-45
2023/03/20 11:29:41;;;;;;;30.15;21.23;;;;;;;7.35;100.00;101455.97;5040219;28;20167;-45
2023/03/20 11:32:38;;;;;;;24.52;20.25;;;;;;;7.34;100.00;101468.41;5039363;28;20184;-45
2023/03/20 11:35:26;;;;;;;24.13;20.88;;;;;;;7.31;100.00;101464.91;5024332;28;20488;-47
2023/03/20 11:37:54;;;;;;;27.45;21.23;;;;;;;7.39;100.00;101465.66;5042764;28;20654;-44
2023/03/20 11:40:32;;;;;;;27.13;21.02;;;;;;;7.33;100.00;101458.66;5043363;28;20657;-44